createdAt,value
2018-12-23T00:00:13.999Z,14.47
2018-12-23T00:04:16.331Z,8.60
2018-12-23T00:08:18.648Z,12.93
2018-12-23T00:12:20.998Z,15.27
2018-12-23T00:16:23.300Z,9.30
2018-12-23T00:20:25.613Z,11.80
2018-12-23T00:24:28.070Z,15.07
2018-12-23T00:28:30.447Z,15.07
2018-12-23T00:32:33.073Z,17.77
2018-12-23T00:36:35.408Z,7.30
2018-12-23T00:40:37.725Z,12.17
2018-12-23T00:44:40.002Z,7.47
2018-12-23T00:48:42.347Z,11.73
2018-12-23T00:52:44.690Z,6.87
2018-12-23T00:56:47.003Z,6.47
2018-12-23T01:00:49.333Z,9.90
2018-12-23T01:04:51.679Z,8.27
2018-12-23T01:08:54.086Z,10.93
2018-12-23T01:12:56.444Z,8.93
2018-12-23T01:16:58.795Z,12.40
2018-12-23T01:21:01.178Z,10.60
2018-12-23T01:25:04.112Z,10.80
2018-12-23T01:29:06.548Z,11.20
2018-12-23T01:33:08.916Z,12.90
2018-12-23T01:37:11.230Z,8.80
2018-12-23T01:41:13.606Z,10.67
2018-12-23T01:45:15.935Z,10.87
2018-12-23T01:49:18.390Z,10.30
2018-12-23T01:53:20.739Z,16.63
2018-12-23T01:57:23.089Z,17.73
2018-12-23T02:01:25.432Z,14.63
2018-12-23T02:05:27.800Z,15.77
2018-12-23T02:09:30.120Z,10.47
2018-12-23T02:13:32.425Z,10.47
2018-12-23T02:17:34.777Z,11.00
2018-12-23T02:21:37.130Z,13.87
2018-12-23T02:25:39.513Z,18.37
2018-12-23T02:29:41.955Z,8.73
2018-12-23T02:33:44.253Z,16.97
2018-12-23T02:37:46.609Z,13.93
2018-12-23T02:41:48.892Z,17.83
2018-12-23T02:45:51.258Z,13.80
2018-12-23T02:49:53.592Z,14.67
2018-12-23T02:53:55.913Z,9.63
2018-12-23T02:57:58.202Z,7.90
2018-12-23T03:02:00.634Z,13.13
2018-12-23T03:06:06.069Z,8.73
2018-12-23T03:10:05.648Z,13.20
2018-12-23T03:14:08.056Z,13.20
2018-12-23T03:18:10.439Z,10.53
2018-12-23T03:22:12.738Z,14.33
2018-12-23T03:26:15.027Z,13.23
2018-12-23T03:30:17.431Z,15.63
2018-12-23T03:34:19.782Z,5.20
2018-12-23T03:38:22.116Z,7.50
2018-12-23T03:42:24.478Z,13.17
2018-12-23T03:46:26.826Z,10.40
2018-12-23T03:50:29.192Z,8.97
2018-12-23T03:54:31.528Z,11.17
2018-12-23T03:58:33.900Z,12.20
2018-12-23T04:02:36.211Z,11.60
2018-12-23T04:06:38.624Z,11.23
2018-12-23T04:10:41.011Z,15.50
2018-12-23T04:14:43.404Z,13.30
2018-12-23T04:18:45.761Z,10.20
2018-12-23T04:22:48.155Z,10.60
2018-12-23T04:26:50.601Z,15.87
2018-12-23T04:30:52.969Z,18.33
2018-12-23T04:34:55.302Z,11.07
2018-12-23T04:38:57.637Z,17.07
2018-12-23T04:43:00.060Z,18.33
2018-12-23T04:47:02.368Z,10.37
2018-12-23T04:51:04.747Z,17.10
2018-12-23T04:55:07.105Z,9.67
2018-12-23T04:59:09.449Z,14.37
2018-12-23T05:03:11.793Z,17.77
2018-12-23T05:07:14.193Z,15.13
2018-12-23T05:11:16.562Z,14.53
2018-12-23T05:15:18.891Z,13.17
2018-12-23T05:19:21.200Z,14.17
2018-12-23T05:23:23.562Z,14.63
2018-12-23T05:27:25.875Z,20.27
2018-12-23T05:31:28.259Z,23.77
2018-12-23T05:35:30.598Z,13.90
2018-12-23T05:39:32.897Z,26.50
2018-12-23T05:43:35.246Z,12.20
2018-12-23T05:47:37.555Z,12.40
2018-12-23T05:51:39.882Z,8.70
2018-12-23T05:55:41.151Z,16.00
2018-12-23T05:59:43.530Z,13.70
2018-12-23T06:03:45.871Z,13.23
2018-12-23T06:07:48.190Z,10.17
2018-12-23T06:11:50.555Z,16.37
2018-12-23T06:15:53.035Z,13.27
2018-12-23T06:19:55.348Z,15.47
2018-12-23T06:23:57.774Z,14.33
2018-12-23T06:28:00.151Z,14.67
2018-12-23T06:32:02.506Z,11.67
2018-12-23T06:36:04.805Z,11.97
2018-12-23T06:40:07.188Z,14.97
2018-12-23T06:44:09.505Z,12.70
2018-12-23T06:48:11.860Z,13.83
2018-12-23T06:52:14.294Z,12.50
2018-12-23T06:56:16.808Z,10.63
2018-12-23T07:00:19.274Z,11.23
2018-12-23T07:04:21.601Z,12.90
2018-12-23T07:08:23.984Z,19.67
2018-12-23T07:12:26.386Z,16.73
2018-12-23T07:16:28.705Z,14.40
2018-12-23T07:20:31.123Z,12.57
2018-12-23T07:24:33.536Z,9.63
2018-12-23T07:28:35.970Z,5.43
2018-12-23T07:32:38.370Z,11.73
2018-12-23T07:36:49.338Z,14.80
2018-12-23T07:40:43.135Z,15.00
2018-12-23T07:44:45.534Z,9.10
2018-12-23T07:48:47.881Z,13.33
2018-12-23T07:52:50.318Z,8.37
2018-12-23T07:56:52.720Z,7.47
2018-12-23T08:00:55.069Z,10.60
2018-12-23T08:04:57.458Z,6.73
2018-12-23T08:08:59.824Z,8.40
2018-12-23T08:13:02.228Z,12.20
2018-12-23T08:17:04.669Z,8.43
2018-12-23T08:21:07.042Z,11.97
2018-12-23T08:25:09.490Z,9.20
2018-12-23T08:29:11.843Z,10.57
2018-12-23T08:33:14.192Z,16.90
2018-12-23T08:37:16.657Z,7.97
2018-12-23T08:41:19.023Z,9.40
2018-12-23T08:45:21.395Z,7.70
2018-12-23T08:49:23.797Z,9.13
2018-12-23T08:53:26.198Z,9.30
2018-12-23T08:57:28.774Z,9.00
2018-12-23T09:01:31.117Z,10.57
2018-12-23T09:05:33.407Z,11.53
2018-12-23T09:09:36.130Z,11.83
2018-12-23T09:13:38.522Z,8.13
2018-12-23T09:17:40.895Z,8.10
2018-12-23T09:21:43.248Z,11.97
2018-12-23T09:25:45.597Z,10.03
2018-12-23T09:29:47.963Z,9.93
2018-12-23T09:33:50.364Z,9.37
2018-12-23T09:38:01.033Z,11.30
2018-12-23T09:41:55.517Z,9.87
2018-12-23T09:45:57.882Z,7.03
2018-12-23T09:50:00.269Z,7.53
2018-12-23T09:54:02.617Z,8.83
2018-12-23T09:58:05.097Z,9.63
2018-12-23T10:02:07.443Z,15.30
2018-12-23T10:06:09.844Z,9.60
2018-12-23T10:10:12.238Z,11.00
2018-12-23T10:14:14.932Z,9.50
2018-12-23T10:18:17.352Z,11.67
2018-12-23T10:22:19.697Z,12.53
2018-12-23T10:26:22.068Z,10.33
2018-12-23T10:30:24.473Z,11.30
2018-12-23T10:34:26.878Z,13.07
2018-12-23T10:38:29.242Z,7.80
2018-12-23T10:42:31.664Z,9.37
2018-12-23T10:46:34.016Z,11.93
2018-12-23T10:50:36.344Z,17.50
2018-12-23T10:54:38.748Z,14.33
2018-12-23T10:58:41.109Z,9.60
2018-12-23T11:02:43.514Z,10.57
2018-12-23T11:06:45.849Z,10.30
2018-12-23T11:10:48.188Z,8.00
2018-12-23T11:14:50.624Z,12.57
2018-12-23T11:18:52.997Z,19.67
2018-12-23T11:22:55.363Z,13.70
2018-12-23T11:26:57.660Z,12.70
2018-12-23T11:31:00.069Z,15.80
2018-12-23T11:35:02.450Z,12.17
2018-12-23T11:39:06.927Z,13.40
2018-12-23T11:43:09.327Z,16.33
2018-12-23T11:47:11.686Z,17.73
2018-12-23T11:51:14.189Z,13.93
2018-12-23T11:55:16.425Z,12.67
2018-12-23T11:59:18.726Z,24.03
2018-12-23T12:03:21.152Z,13.97
2018-12-23T12:07:23.528Z,15.13
2018-12-23T12:11:27.239Z,13.27
2018-12-23T12:15:29.666Z,13.10
2018-12-23T12:19:32.646Z,18.10
2018-12-23T12:23:34.983Z,9.93
2018-12-23T12:27:38.006Z,13.90
2018-12-23T12:31:40.411Z,12.53
2018-12-23T12:35:42.705Z,12.80
2018-12-23T12:39:45.053Z,18.67
2018-12-23T12:43:47.386Z,17.03
2018-12-23T12:47:50.468Z,8.57
2018-12-23T12:51:52.782Z,9.27
2018-12-23T12:55:55.316Z,9.43
2018-12-23T12:59:57.858Z,7.57
2018-12-23T13:04:01.502Z,18.77
2018-12-23T13:08:03.896Z,7.20
2018-12-23T13:12:06.421Z,9.67
2018-12-23T13:16:08.869Z,4.67
2018-12-23T13:20:11.432Z,4.57
2018-12-23T13:24:13.791Z,5.60
2018-12-23T13:28:16.589Z,3.57
2018-12-23T13:32:19.319Z,13.70
2018-12-23T13:36:24.213Z,10.70
2018-12-23T13:40:38.977Z,6.40
2018-12-23T13:46:56.931Z,9.03
2018-12-23T13:51:27.541Z,5.93
2018-12-23T13:55:38.245Z,7.27
2018-12-23T13:59:57.267Z,8.23
2018-12-23T14:05:13.956Z,4.20
2018-12-23T14:10:31.271Z,9.97
2018-12-23T14:14:34.300Z,3.90
2018-12-23T14:18:38.886Z,5.50
2018-12-23T14:22:43.167Z,9.67
2018-12-23T14:26:45.751Z,15.03
2018-12-23T14:30:48.492Z,16.43
2018-12-23T14:34:50.906Z,17.70
2018-12-23T14:38:55.601Z,14.37
2018-12-23T14:42:58.460Z,18.57
2018-12-23T14:47:03.177Z,11.90
2018-12-23T14:51:06.672Z,12.03
2018-12-23T14:55:09.136Z,9.97
2018-12-23T14:59:12.507Z,8.97
2018-12-23T15:03:14.954Z,13.90
2018-12-23T15:07:18.763Z,11.60
2018-12-23T15:11:21.362Z,8.77
2018-12-23T15:15:25.381Z,11.77
2018-12-23T15:19:27.919Z,11.80
2018-12-23T15:23:30.350Z,8.23
2018-12-23T15:27:34.461Z,11.50
2018-12-23T15:31:36.911Z,7.77
2018-12-23T15:35:42.395Z,7.60
2018-12-23T15:39:44.875Z,7.10
2018-12-23T15:43:47.941Z,6.53
2018-12-23T15:47:50.486Z,5.90
2018-12-23T15:51:52.845Z,7.87
2018-12-23T15:55:55.552Z,5.63
2018-12-23T15:59:58.571Z,6.50
2018-12-23T16:04:01.023Z,5.13
2018-12-23T16:08:03.645Z,6.07
2018-12-23T16:12:08.373Z,7.57
2018-12-23T16:16:10.941Z,6.57
2018-12-23T16:20:14.951Z,7.57
2018-12-23T16:24:17.999Z,5.37
2018-12-23T16:28:21.007Z,6.83
2018-12-23T16:32:24.882Z,4.47
2018-12-23T16:36:27.344Z,8.87
2018-12-23T16:40:30.841Z,5.57
2018-12-23T16:44:33.309Z,7.37
2018-12-23T16:48:36.290Z,5.17
2018-12-23T16:52:38.751Z,4.50
2018-12-23T16:56:41.147Z,4.03
2018-12-23T17:00:44.200Z,3.43
2018-12-23T17:04:46.600Z,5.27
2018-12-23T17:08:48.975Z,6.07
2018-12-23T17:12:51.379Z,6.50
2018-12-23T17:16:53.729Z,11.07
2018-12-23T17:20:56.131Z,3.57
2018-12-23T17:24:58.506Z,5.40
2018-12-23T17:29:00.845Z,4.50
2018-12-23T17:33:03.294Z,3.83
2018-12-23T17:37:05.740Z,4.73
2018-12-23T17:41:08.125Z,7.03
2018-12-23T17:45:10.507Z,4.47
2018-12-23T17:49:12.891Z,5.37
2018-12-23T17:53:15.270Z,6.73
2018-12-23T17:57:17.570Z,5.00
2018-12-23T18:01:19.950Z,5.60
2018-12-23T18:05:22.345Z,6.77
2018-12-23T18:09:24.778Z,7.53
2018-12-23T18:13:27.184Z,8.90
2018-12-23T18:17:29.551Z,6.93
2018-12-23T18:21:31.991Z,3.60
2018-12-23T18:25:34.409Z,2.07
2018-12-23T18:29:36.754Z,1.93
2018-12-23T18:33:39.151Z,1.43
2018-12-23T18:37:41.665Z,3.37
2018-12-23T18:41:44.154Z,2.90
2018-12-23T18:45:47.191Z,1.67
2018-12-23T18:49:49.594Z,1.73
2018-12-23T18:53:52.581Z,1.67
2018-12-23T18:57:55.005Z,2.40
2018-12-23T19:02:02.706Z,1.60
2018-12-23T19:06:07.194Z,9.33
2018-12-23T19:10:17.589Z,5.90
2018-12-23T19:14:31.247Z,2.30
2018-12-23T19:18:53.955Z,1.53
2018-12-23T19:23:07.647Z,1.80
2018-12-23T19:27:21.370Z,1.93
2018-12-23T19:31:35.921Z,1.73
2018-12-23T19:35:49.355Z,2.00
2018-12-23T19:42:05.639Z,1.63
2018-12-23T19:46:35.072Z,1.23
2018-12-23T19:50:55.683Z,1.10
2018-12-23T19:55:18.488Z,1.80
2018-12-23T20:00:30.450Z,1.50
2018-12-23T20:05:50.349Z,1.20
2018-12-23T20:10:07.550Z,1.53
2018-12-23T20:15:30.499Z,1.60
2018-12-23T20:20:19.703Z,1.33
2018-12-23T20:24:33.797Z,1.40
2018-12-23T20:30:58.630Z,1.70
2018-12-23T20:35:14.961Z,2.20
2018-12-23T20:39:31.330Z,1.67
2018-12-23T20:45:48.139Z,2.63
2018-12-23T20:50:01.336Z,6.67
2018-12-23T20:56:22.558Z,13.13
2018-12-23T21:01:38.935Z,6.47
2018-12-23T21:05:52.373Z,5.63
2018-12-23T21:10:16.858Z,1.93
2018-12-23T21:14:31.028Z,3.60
2018-12-23T21:19:05.831Z,4.27
2018-12-23T21:24:18.248Z,2.97
2018-12-23T21:28:38.823Z,4.87
2018-12-23T21:32:52.434Z,3.97
2018-12-23T21:37:07.784Z,2.73
2018-12-23T21:41:24.508Z,1.37
2018-12-23T21:46:05.202Z,1.03
2018-12-23T21:50:17.648Z,1.67
2018-12-23T21:56:34.263Z,0.60
2018-12-23T22:00:51.595Z,6.50
2018-12-23T22:05:08.808Z,4.87
2018-12-23T22:10:25.143Z,3.47
2018-12-23T22:14:28.075Z,1.40
2018-12-23T22:18:30.621Z,0.60
2018-12-23T22:22:32.976Z,2.10
2018-12-23T22:26:35.333Z,1.23
2018-12-23T22:30:37.782Z,2.73
2018-12-23T22:34:40.902Z,0.80
2018-12-23T22:38:43.270Z,1.73
2018-12-23T22:42:45.898Z,2.30
2018-12-23T22:46:48.984Z,7.43
2018-12-23T22:50:51.287Z,3.60
2018-12-23T22:54:53.672Z,1.27
2018-12-23T22:58:56.246Z,1.37
2018-12-23T23:02:58.662Z,1.30
2018-12-23T23:07:01.053Z,1.53
2018-12-23T23:11:03.449Z,1.30
2018-12-23T23:15:05.952Z,1.77
2018-12-23T23:19:08.292Z,2.77
2018-12-23T23:23:10.887Z,2.97
2018-12-23T23:27:13.938Z,1.30
2018-12-23T23:31:16.336Z,1.67
2018-12-23T23:35:18.702Z,1.00
2018-12-23T23:39:21.057Z,1.63
2018-12-23T23:43:23.408Z,0.80
2018-12-23T23:47:25.727Z,2.07
2018-12-23T23:51:28.068Z,1.60
2018-12-23T23:55:30.381Z,2.60
2018-12-23T23:59:32.692Z,0.93
